createdAt,value
2023-03-15T00:00:10.533Z,94352.25
2023-03-15T00:02:56.227Z,94343.91
2023-03-15T00:05:43.581Z,94341.22
2023-03-15T00:08:33.197Z,94330.94
2023-03-15T00:11:19.048Z,94327.00
2023-03-15T00:14:40.780Z,94332.25
2023-03-15T00:17:26.712Z,94330.34
2023-03-15T00:20:14.981Z,94323.84
2023-03-15T00:23:00.671Z,94329.22
2023-03-15T00:25:48.222Z,94325.41
2023-03-15T00:28:34.071Z,94323.19
2023-03-15T00:31:23.233Z,94319.34
2023-03-15T00:34:09.524Z,94313.94
2023-03-15T00:36:55.231Z,94300.69
2023-03-15T00:39:41.340Z,94300.81
2023-03-15T00:42:28.719Z,94305.75
2023-03-15T00:45:14.543Z,94299.09
2023-03-15T00:48:00.523Z,94299.44
2023-03-15T00:50:46.602Z,94290.75
2023-03-15T00:53:33.511Z,94291.59
2023-03-15T00:56:22.235Z,94307.75
2023-03-15T00:59:08.739Z,94303.22
2023-03-15T01:01:54.436Z,94290.41
2023-03-15T01:04:41.698Z,94292.50
2023-03-15T01:07:27.576Z,94293.16
2023-03-15T01:10:14.503Z,94286.34
2023-03-15T01:13:00.610Z,94277.78
2023-03-15T01:15:47.816Z,94276.06
2023-03-15T01:18:33.848Z,94270.53
2023-03-15T01:21:20.671Z,94274.31
2023-03-15T01:24:07.596Z,94261.72
2023-03-15T01:26:53.289Z,94263.28
2023-03-15T01:29:39.057Z,94258.53
2023-03-15T01:32:27.098Z,94255.84
2023-03-15T01:35:13.279Z,94249.19
2023-03-15T01:37:59.570Z,94244.47
2023-03-15T01:40:46.363Z,94239.22
2023-03-15T01:43:33.782Z,94236.06
2023-03-15T01:46:20.156Z,94217.41
2023-03-15T01:49:23.525Z,94212.25
2023-03-15T01:52:33.047Z,94220.03
2023-03-15T01:55:21.989Z,94222.88
2023-03-15T01:58:24.820Z,94221.19
2023-03-15T02:01:11.582Z,94243.53
2023-03-15T02:04:09.153Z,94245.44
2023-03-15T02:07:01.830Z,94246.47
2023-03-15T02:10:13.678Z,94253.34
2023-03-15T02:13:07.672Z,94255.06
2023-03-15T02:15:53.724Z,94271.06
2023-03-15T02:18:55.042Z,94256.38
2023-03-15T02:22:24.240Z,94277.25
2023-03-15T02:25:29.156Z,94290.38
2023-03-15T02:28:15.289Z,94290.22
2023-03-15T02:31:01.784Z,94289.59
2023-03-15T02:33:53.267Z,94300.22
2023-03-15T02:36:41.718Z,94297.66
2023-03-15T02:39:28.478Z,94297.84
2023-03-15T02:42:14.612Z,94286.41
2023-03-15T02:45:00.659Z,94270.94
2023-03-15T02:47:49.915Z,94259.50
2023-03-15T02:50:36.186Z,94262.03
2023-03-15T02:53:22.201Z,94252.38
2023-03-15T02:56:08.092Z,94264.88
2023-03-15T02:58:53.973Z,94249.22
2023-03-15T03:01:40.265Z,94248.13
2023-03-15T03:04:26.081Z,94248.75
2023-03-15T03:07:11.822Z,94250.31
2023-03-15T03:10:06.654Z,94246.25
2023-03-15T03:13:02.004Z,94250.06
2023-03-15T03:15:58.772Z,94244.03
2023-03-15T03:18:47.561Z,94238.97
2023-03-15T03:21:33.452Z,94241.03
2023-03-15T03:24:19.957Z,94258.72
2023-03-15T03:27:06.513Z,94240.50
2023-03-15T03:29:56.344Z,94239.88
2023-03-15T03:32:42.497Z,94250.44
2023-03-15T03:35:29.117Z,94251.56
2023-03-15T03:38:14.999Z,94237.63
2023-03-15T03:41:05.171Z,94246.31
2023-03-15T03:43:52.173Z,94240.94
2023-03-15T03:46:39.158Z,94248.50
2023-03-15T03:49:24.919Z,94231.91
2023-03-15T03:52:10.658Z,94232.53
2023-03-15T03:54:56.455Z,94241.88
2023-03-15T03:57:42.916Z,94238.41
2023-03-15T04:00:33.573Z,94246.75
2023-03-15T04:03:19.360Z,94235.97
2023-03-15T04:06:08.164Z,94226.00
2023-03-15T04:08:58.344Z,94239.09
2023-03-15T04:11:51.790Z,94234.97
2023-03-15T04:14:37.943Z,94223.72
2023-03-15T04:17:26.746Z,94225.47
2023-03-15T04:20:13.109Z,94227.84
2023-03-15T04:23:03.089Z,94221.41
2023-03-15T04:26:15.214Z,94215.88
2023-03-15T04:29:15.654Z,94215.75
2023-03-15T04:32:17.657Z,94222.69
2023-03-15T04:35:35.315Z,94216.41
2023-03-15T04:38:41.448Z,94217.25
2023-03-15T04:41:28.064Z,94228.44
2023-03-15T04:44:40.873Z,94226.75
2023-03-15T04:47:47.122Z,94238.28
2023-03-15T04:50:51.088Z,94233.56
2023-03-15T04:53:53.589Z,94245.91
2023-03-15T04:56:59.549Z,94240.50
2023-03-15T05:00:18.490Z,94241.78
2023-03-15T05:03:23.482Z,94253.22
2023-03-15T05:06:31.858Z,94256.06
2023-03-15T05:09:46.814Z,94244.88
2023-03-15T05:12:53.022Z,94268.13
2023-03-15T05:15:56.161Z,94280.16
2023-03-15T05:19:05.059Z,94281.44
2023-03-15T05:21:58.674Z,94278.78
2023-03-15T05:25:01.294Z,94287.16
2023-03-15T05:27:59.371Z,94272.00
2023-03-15T05:31:05.420Z,94278.94
2023-03-15T05:34:12.255Z,94282.13
2023-03-15T05:37:22.717Z,94275.16
2023-03-15T05:40:30.157Z,94277.38
2023-03-15T05:43:24.851Z,94274.81
2023-03-15T05:46:25.207Z,94271.03
2023-03-15T05:49:28.207Z,94278.31
2023-03-15T05:52:36.572Z,94270.25
2023-03-15T05:55:40.057Z,94275.44
2023-03-15T05:58:44.066Z,94272.28
2023-03-15T06:01:59.848Z,94271.66
2023-03-15T06:04:53.136Z,94267.06
2023-03-15T06:07:42.923Z,94267.41
2023-03-15T06:10:28.946Z,94271.34
2023-03-15T06:13:18.404Z,94275.94
2023-03-15T06:16:05.509Z,94274.38
2023-03-15T06:18:53.851Z,94276.25
2023-03-15T06:21:39.946Z,94268.19
2023-03-15T06:24:31.740Z,94274.03
2023-03-15T06:27:22.414Z,94283.03
2023-03-15T06:30:15.901Z,94277.66
2023-03-15T06:33:03.605Z,94281.81
2023-03-15T06:35:50.719Z,94287.78
2023-03-15T06:38:36.782Z,94280.03
2023-03-15T06:41:22.560Z,94285.56
2023-03-15T06:44:13.299Z,94266.63
2023-03-15T06:47:00.120Z,94282.41
2023-03-15T06:49:50.429Z,94282.72
2023-03-15T06:52:39.642Z,94282.41
2023-03-15T06:55:26.006Z,94287.78
2023-03-15T06:58:12.705Z,94286.22
2023-03-15T07:00:59.069Z,94279.13
2023-03-15T07:03:45.027Z,94285.72
2023-03-15T07:06:30.942Z,94277.53
2023-03-15T07:09:16.821Z,94275.16
2023-03-15T07:12:02.495Z,94276.75
2023-03-15T07:14:49.570Z,94272.00
2023-03-15T07:17:35.517Z,94272.47
2023-03-15T07:20:21.303Z,94265.34
2023-03-15T07:23:07.000Z,94277.38
2023-03-15T07:25:55.490Z,94279.56
2023-03-15T07:28:43.651Z,94274.81
2023-03-15T07:31:29.133Z,94274.81
2023-03-15T07:34:14.750Z,94275.63
2023-03-15T07:37:00.708Z,94266.63
2023-03-15T07:39:48.451Z,94281.66
2023-03-15T07:42:34.222Z,94278.66
2023-03-15T07:45:20.785Z,94271.69
2023-03-15T07:48:06.716Z,94266.31
2023-03-15T07:50:55.235Z,94269.13
2023-03-15T07:53:42.184Z,94264.06
2023-03-15T07:56:27.979Z,94260.59
2023-03-15T07:59:13.784Z,94255.22
2023-03-15T08:02:01.599Z,94259.69
2023-03-15T08:04:50.977Z,94243.72
2023-03-15T08:07:37.543Z,94253.97
2023-03-15T08:10:23.593Z,94253.34
2023-03-15T08:13:09.497Z,94241.81
2023-03-15T08:15:55.303Z,94251.44
2023-03-15T08:18:41.069Z,94241.97
2023-03-15T08:21:26.705Z,94252.22
2023-03-15T08:24:13.015Z,94257.28
2023-03-15T08:26:58.730Z,94255.56
2023-03-15T08:29:44.793Z,94251.78
2023-03-15T08:32:30.875Z,94259.03
2023-03-15T08:35:17.707Z,94252.06
2023-03-15T08:38:03.613Z,94256.81
2023-03-15T08:40:49.426Z,94273.88
2023-03-15T08:43:35.261Z,94263.91
2023-03-15T08:46:22.207Z,94257.44
2023-03-15T08:49:08.174Z,94259.66
2023-03-15T08:51:53.882Z,94252.41
2023-03-15T08:54:40.560Z,94251.28
2023-03-15T08:57:26.599Z,94257.16
2023-03-15T09:00:23.252Z,94250.19
2023-03-15T09:03:08.953Z,94252.69
2023-03-15T09:05:58.783Z,94253.47
2023-03-15T09:08:44.685Z,94251.09
2023-03-15T09:11:30.516Z,94250.97
2023-03-15T09:14:16.718Z,94236.72
2023-03-15T09:17:03.291Z,94245.28
2023-03-15T09:19:49.202Z,94242.91
2023-03-15T09:22:39.535Z,94246.69
2023-03-15T09:25:26.169Z,94241.19
2023-03-15T09:28:12.436Z,94240.06
2023-03-15T09:31:00.032Z,94253.53
2023-03-15T09:33:46.680Z,94244.19
2023-03-15T09:36:33.353Z,94251.63
2023-03-15T09:39:22.023Z,94248.28
2023-03-15T09:42:20.005Z,94257.16
2023-03-15T09:45:26.733Z,94249.38
2023-03-15T09:48:21.730Z,94250.78
2023-03-15T09:51:13.544Z,94251.09
2023-03-15T09:54:03.569Z,94246.00
2023-03-15T09:56:55.352Z,94236.19
2023-03-15T09:59:44.056Z,94238.69
2023-03-15T10:02:31.196Z,94234.25
2023-03-15T10:05:21.436Z,94234.25
2023-03-15T10:08:17.702Z,94232.97
2023-03-15T10:11:38.624Z,94235.84
2023-03-15T10:14:57.709Z,94241.22
2023-03-15T10:18:05.173Z,94243.44
2023-03-15T10:20:56.866Z,94244.06
2023-03-15T10:23:49.822Z,94249.44
2023-03-15T10:26:37.556Z,94246.59
2023-03-15T10:29:25.739Z,94240.56
2023-03-15T10:32:20.712Z,94241.78
2023-03-15T10:35:15.172Z,94245.91
2023-03-15T10:38:02.770Z,94243.69
2023-03-15T10:40:53.650Z,94240.50
2023-03-15T10:43:41.839Z,94244.16
2023-03-15T10:46:28.122Z,94238.47
2023-03-15T10:49:17.228Z,94240.03
2023-03-15T10:52:03.992Z,94240.22
2023-03-15T10:54:55.380Z,94234.22
2023-03-15T10:57:55.418Z,94238.34
2023-03-15T11:00:49.806Z,94239.78
2023-03-15T11:03:37.234Z,94231.41
2023-03-15T11:06:28.801Z,94225.13
2023-03-15T11:09:17.693Z,94231.91
2023-03-15T11:12:06.408Z,94236.19
2023-03-15T11:15:00.777Z,94240.00
2023-03-15T11:17:57.735Z,94230.38
2023-03-15T11:20:45.961Z,94226.41
2023-03-15T11:23:38.458Z,94240.19
2023-03-15T11:26:32.596Z,94239.56
2023-03-15T11:29:28.456Z,94229.66
2023-03-15T11:32:23.313Z,94233.28
2023-03-15T11:35:23.065Z,94235.31
2023-03-15T11:38:15.950Z,94232.47
2023-03-15T11:41:09.977Z,94222.19
2023-03-15T11:44:39.182Z,94220.13
2023-03-15T11:47:31.607Z,94216.34
2023-03-15T11:50:21.063Z,94217.91
2023-03-15T11:53:07.190Z,94211.59
2023-03-15T11:55:54.804Z,94205.88
2023-03-15T11:58:45.122Z,94209.22
2023-03-15T12:01:31.168Z,94212.03
2023-03-15T12:04:40.278Z,94215.34
2023-03-15T12:07:35.144Z,94217.25
2023-03-15T12:10:32.228Z,94220.88
2023-03-15T12:13:30.320Z,94220.09
2023-03-15T12:16:16.251Z,94228.63
2023-03-15T12:19:10.714Z,94217.72
2023-03-15T12:21:58.210Z,94231.44
2023-03-15T12:24:45.739Z,94228.44
2023-03-15T12:27:34.662Z,94231.13
2023-03-15T12:30:24.757Z,94233.31
2023-03-15T12:33:23.656Z,94225.13
2023-03-15T12:36:17.034Z,94234.56
2023-03-15T12:39:22.238Z,94234.56
2023-03-15T12:42:13.784Z,94237.88
2023-03-15T12:45:18.127Z,94233.91
2023-03-15T12:48:06.586Z,94235.81
2023-03-15T12:51:04.073Z,94246.19
2023-03-15T12:53:50.801Z,94246.19
2023-03-15T12:56:54.463Z,94253.75
2023-03-15T12:59:56.436Z,94249.97
2023-03-15T13:02:55.048Z,94243.69
2023-03-15T13:05:45.241Z,94243.53
2023-03-15T13:09:01.232Z,94247.50
2023-03-15T13:11:49.877Z,94248.47
2023-03-15T13:14:38.506Z,94241.53
2023-03-15T13:17:27.802Z,94243.09
2023-03-15T13:20:23.795Z,94243.91
2023-03-15T13:23:26.577Z,94249.41
2023-03-15T13:26:21.457Z,94252.59
2023-03-15T13:29:07.376Z,94254.97
2023-03-15T13:32:18.510Z,94263.31
2023-03-15T13:35:11.481Z,94255.44
2023-03-15T13:38:07.889Z,94252.44
2023-03-15T13:40:55.500Z,94262.25
2023-03-15T13:43:42.453Z,94265.09
2023-03-15T13:46:30.894Z,94264.94
2023-03-15T13:49:17.596Z,94265.91
2023-03-15T13:52:06.832Z,94270.31
2023-03-15T13:54:55.076Z,94267.97
2023-03-15T13:57:41.011Z,94270.47
2023-03-15T14:00:33.850Z,94273.94
2023-03-15T14:03:24.079Z,94269.38
2023-03-15T14:06:13.852Z,94274.13
2023-03-15T14:09:12.244Z,94271.44
2023-03-15T14:12:03.637Z,94283.09
2023-03-15T14:14:52.439Z,94273.66
2023-03-15T14:17:38.305Z,94268.09
2023-03-15T14:20:30.112Z,94280.41
2023-03-15T14:23:18.460Z,94273.16
2023-03-15T14:26:10.323Z,94285.00
2023-03-15T14:29:02.202Z,94277.91
2023-03-15T14:31:52.056Z,94289.88
2023-03-15T14:34:45.753Z,94291.94
2023-03-15T14:37:31.845Z,94297.50
2023-03-15T14:40:35.060Z,94291.84
2023-03-15T14:43:21.944Z,94281.56
2023-03-15T14:46:08.928Z,94278.91
2023-03-15T14:48:54.943Z,94292.16
2023-03-15T14:51:40.683Z,94288.22
2023-03-15T14:54:26.451Z,94286.47
2023-03-15T14:57:12.547Z,94291.41
2023-03-15T14:59:58.352Z,94283.66
2023-03-15T15:02:45.317Z,94293.13
2023-03-15T15:05:34.632Z,94294.72
2023-03-15T15:08:25.283Z,94302.00
2023-03-15T15:11:11.093Z,94297.88
2023-03-15T15:13:57.853Z,94307.84
2023-03-15T15:16:44.339Z,94293.94
2023-03-15T15:19:30.448Z,94318.28
2023-03-15T15:22:16.401Z,94318.09
2023-03-15T15:25:02.730Z,94302.28
2023-03-15T15:27:49.200Z,94319.66
2023-03-15T15:30:35.173Z,94312.84
2023-03-15T15:33:23.185Z,94330.72
2023-03-15T15:36:33.588Z,94327.69
2023-03-15T15:39:27.698Z,94334.19
2023-03-15T15:42:13.486Z,94335.28
2023-03-15T15:44:59.144Z,94339.50
2023-03-15T15:47:45.312Z,94341.69
2023-03-15T15:50:34.372Z,94344.16
2023-03-15T15:53:20.175Z,94346.00
2023-03-15T15:56:06.346Z,94353.56
2023-03-15T15:58:52.130Z,94370.31
2023-03-15T16:01:49.298Z,94368.34
2023-03-15T16:04:42.913Z,94367.03
2023-03-15T16:07:29.132Z,94378.38
2023-03-15T16:10:23.845Z,94381.78
2023-03-15T16:13:11.243Z,94387.78
2023-03-15T16:15:57.013Z,94401.91
2023-03-15T16:18:43.523Z,94419.72
2023-03-15T16:21:33.753Z,94398.81
2023-03-15T16:24:30.296Z,94415.69
2023-03-15T16:27:22.996Z,94423.34
2023-03-15T16:30:22.048Z,94417.91
2023-03-15T16:33:17.332Z,94430.81
2023-03-15T16:36:03.964Z,94444.13
2023-03-15T16:38:49.936Z,94442.19
2023-03-15T16:41:36.100Z,94441.81
2023-03-15T16:44:22.250Z,94452.91
2023-03-15T16:47:08.470Z,94469.38
2023-03-15T16:49:54.457Z,94471.56
2023-03-15T16:52:42.128Z,94472.16
2023-03-15T16:55:29.820Z,94473.94
2023-03-15T16:58:17.989Z,94483.19
2023-03-15T17:01:04.096Z,94487.03
2023-03-15T17:03:49.586Z,94482.25
2023-03-15T17:06:35.706Z,94492.00
2023-03-15T17:09:22.394Z,94517.25
2023-03-15T17:12:20.665Z,94508.31
2023-03-15T17:15:06.796Z,94502.44
2023-03-15T17:17:53.936Z,94512.72
2023-03-15T17:20:41.083Z,94513.50
2023-03-15T17:23:27.236Z,94516.44
2023-03-15T17:26:14.583Z,94525.78
2023-03-15T17:29:01.401Z,94525.72
2023-03-15T17:31:47.807Z,94533.47
2023-03-15T17:34:34.068Z,94530.38
2023-03-15T17:37:20.443Z,94546.13
2023-03-15T17:40:15.479Z,94538.91
2023-03-15T17:43:03.988Z,94547.50
2023-03-15T17:45:50.035Z,94545.69
2023-03-15T17:48:35.666Z,94548.09
2023-03-15T17:51:23.857Z,94548.97
2023-03-15T17:54:20.417Z,94564.78
2023-03-15T17:57:06.994Z,94566.38
2023-03-15T17:59:58.729Z,94572.81
2023-03-15T18:02:54.963Z,94571.00
2023-03-15T18:05:44.689Z,94562.19
2023-03-15T18:08:30.550Z,94572.16
2023-03-15T18:11:25.899Z,94594.91
2023-03-15T18:14:13.705Z,94585.41
2023-03-15T18:16:59.550Z,94594.72
2023-03-15T18:19:45.318Z,94574.19
2023-03-15T18:22:31.399Z,94598.16
2023-03-15T18:25:23.207Z,94597.69
2023-03-15T18:28:09.455Z,94611.63
2023-03-15T18:30:55.491Z,94607.34
2023-03-15T18:33:41.400Z,94613.78
2023-03-15T18:36:27.424Z,94626.34
2023-03-15T18:39:14.763Z,94613.84
2023-03-15T18:42:01.042Z,94624.53
2023-03-15T18:44:47.017Z,94624.59
2023-03-15T18:47:32.786Z,94629.38
2023-03-15T18:50:19.658Z,94633.66
2023-03-15T18:53:06.390Z,94644.34
2023-03-15T18:55:52.474Z,94632.84
2023-03-15T18:58:38.388Z,94631.03
2023-03-15T19:01:25.039Z,94644.06
2023-03-15T19:04:11.283Z,94636.38
2023-03-15T19:06:57.232Z,94643.31
2023-03-15T19:09:44.719Z,94643.88
2023-03-15T19:12:30.779Z,94642.28
2023-03-15T19:15:19.859Z,94660.97
2023-03-15T19:18:05.715Z,94651.97
2023-03-15T19:20:52.611Z,94664.00
2023-03-15T19:23:38.753Z,94661.06
2023-03-15T19:26:24.882Z,94666.97
2023-03-15T19:29:11.235Z,94673.91
2023-03-15T19:31:57.065Z,94662.78
2023-03-15T19:34:43.380Z,94666.97
2023-03-15T19:37:29.304Z,94676.06
2023-03-15T19:40:16.678Z,94665.38
2023-03-15T19:43:02.570Z,94666.53
2023-03-15T19:45:48.218Z,94680.41
2023-03-15T19:48:34.819Z,94684.16
2023-03-15T19:51:21.155Z,94681.41
2023-03-15T19:54:07.168Z,94698.50
2023-03-15T19:56:54.099Z,94695.56
2023-03-15T19:59:41.366Z,94693.75
2023-03-15T20:02:26.983Z,94684.16
2023-03-15T20:05:15.362Z,94695.91
2023-03-15T20:08:02.153Z,94689.25
2023-03-15T20:10:48.713Z,94716.22
2023-03-15T20:13:36.296Z,94703.34
2023-03-15T20:16:22.900Z,94717.81
2023-03-15T20:19:08.468Z,94714.63
2023-03-15T20:21:54.301Z,94708.78
2023-03-15T20:24:42.616Z,94734.94
2023-03-15T20:27:28.665Z,94731.72
2023-03-15T20:30:15.894Z,94725.31
2023-03-15T20:33:01.831Z,94740.81
2023-03-15T20:35:47.963Z,94728.63
2023-03-15T20:38:34.784Z,94743.03
2023-03-15T20:41:21.196Z,94750.97
2023-03-15T20:44:07.940Z,94761.16
2023-03-15T20:46:56.789Z,94741.44
2023-03-15T20:49:42.961Z,94764.41
2023-03-15T20:52:29.128Z,94764.97
2023-03-15T20:55:15.288Z,94756.41
2023-03-15T20:58:01.391Z,94741.53
2023-03-15T21:00:47.236Z,94762.03
2023-03-15T21:03:34.552Z,94774.13
2023-03-15T21:06:23.630Z,94757.59
2023-03-15T21:09:09.881Z,94766.16
2023-03-15T21:11:57.136Z,94777.34
2023-03-15T21:14:43.383Z,94773.66
2023-03-15T21:17:29.348Z,94762.19
2023-03-15T21:20:15.824Z,94776.91
2023-03-15T21:23:01.888Z,94784.41
2023-03-15T21:25:54.419Z,94791.13
2023-03-15T21:28:42.027Z,94803.63
2023-03-15T21:31:28.226Z,94798.06
2023-03-15T21:34:14.606Z,94802.03
2023-03-15T21:37:00.358Z,94804.75
2023-03-15T21:39:47.250Z,94805.28
2023-03-15T21:42:33.811Z,94813.84
2023-03-15T21:45:19.989Z,94803.69
2023-03-15T21:48:06.874Z,94803.22
2023-03-15T21:51:02.811Z,94810.16
2023-03-15T21:53:50.495Z,94824.03
2023-03-15T21:56:36.264Z,94796.31
2023-03-15T21:59:28.113Z,94805.13
2023-03-15T22:02:16.845Z,94815.25
2023-03-15T22:05:02.997Z,94825.13
2023-03-15T22:07:49.260Z,94833.94
2023-03-15T22:10:35.260Z,94824.06
2023-03-15T22:13:21.701Z,94830.53
2023-03-15T22:16:12.167Z,94836.13
2023-03-15T22:18:57.888Z,94823.34
2023-03-15T22:21:43.850Z,94838.00
2023-03-15T22:24:29.901Z,94840.69
2023-03-15T22:27:15.768Z,94843.88
2023-03-15T22:30:01.560Z,94860.69
2023-03-15T22:32:47.552Z,94863.09
2023-03-15T22:35:33.528Z,94838.84
2023-03-15T22:38:19.794Z,94841.78
2023-03-15T22:41:10.878Z,94847.66
2023-03-15T22:43:57.784Z,94861.00
2023-03-15T22:46:43.702Z,94861.56
2023-03-15T22:49:29.480Z,94857.00
2023-03-15T22:52:15.228Z,94838.13
2023-03-15T22:55:01.013Z,94845.53
2023-03-15T22:57:47.238Z,94857.28
2023-03-15T23:00:32.995Z,94863.16
2023-03-15T23:03:19.448Z,94855.16
2023-03-15T23:06:05.515Z,94846.38
2023-03-15T23:08:51.512Z,94857.59
2023-03-15T23:11:37.574Z,94861.06
2023-03-15T23:14:23.388Z,94858.41
2023-03-15T23:17:10.222Z,94872.53
2023-03-15T23:19:56.162Z,94872.81
2023-03-15T23:22:42.036Z,94873.38
2023-03-15T23:25:30.781Z,94882.44
2023-03-15T23:28:17.898Z,94891.00
2023-03-15T23:31:05.599Z,94898.47
2023-03-15T23:33:51.634Z,94904.31
2023-03-15T23:36:37.315Z,94893.91
2023-03-15T23:39:23.119Z,94896.84
2023-03-15T23:42:09.009Z,94901.69
2023-03-15T23:44:55.734Z,94911.25
2023-03-15T23:47:42.207Z,94909.69
2023-03-15T23:50:28.957Z,94910.19
2023-03-15T23:53:15.036Z,94897.16
2023-03-15T23:56:01.464Z,94908.59
2023-03-15T23:58:47.429Z,94919.25
